createdAt,value
2019-02-05T00:01:45.948Z,15.48
2019-02-05T00:04:12.573Z,15.30
2019-02-05T00:06:39.261Z,14.60
2019-02-05T00:09:05.842Z,14.10
2019-02-05T00:11:32.671Z,13.75
2019-02-05T00:13:59.252Z,13.03
2019-02-05T00:16:25.829Z,13.80
2019-02-05T00:18:52.461Z,13.18
2019-02-05T00:21:19.117Z,13.93
2019-02-05T00:23:45.701Z,12.58
2019-02-05T00:26:12.539Z,13.38
2019-02-05T00:28:39.124Z,13.68
2019-02-05T00:31:05.778Z,14.30
2019-02-05T00:33:32.705Z,14.00
2019-02-05T00:35:59.291Z,14.40
2019-02-05T00:38:26.460Z,12.65
2019-02-05T00:40:53.096Z,12.68
2019-02-05T00:43:19.684Z,12.90
2019-02-05T00:45:46.423Z,13.88
2019-02-05T00:48:13.045Z,14.15
2019-02-05T00:50:41.631Z,12.95
2019-02-05T00:53:07.931Z,13.48
2019-02-05T00:55:34.558Z,12.78
2019-02-05T00:58:01.536Z,13.18
2019-02-05T01:00:28.146Z,12.13
2019-02-05T01:02:54.761Z,12.63
2019-02-05T01:05:21.336Z,13.25
2019-02-05T01:07:47.927Z,12.47
2019-02-05T01:10:14.736Z,12.90
2019-02-05T01:12:41.327Z,12.43
2019-02-05T01:15:08.713Z,12.47
2019-02-05T01:17:35.343Z,12.05
2019-02-05T01:20:01.922Z,11.85
2019-02-05T01:22:28.608Z,12.60
2019-02-05T01:24:55.250Z,12.30
2019-02-05T01:27:21.892Z,12.13
2019-02-05T01:29:48.471Z,12.63
2019-02-05T01:32:15.421Z,13.48
2019-02-05T01:34:42.283Z,13.00
2019-02-05T01:37:09.066Z,12.78
2019-02-05T01:39:35.694Z,11.28
2019-02-05T01:42:02.277Z,11.40
2019-02-05T01:44:28.935Z,11.95
2019-02-05T01:46:55.558Z,13.45
2019-02-05T01:49:22.192Z,12.28
2019-02-05T01:51:48.806Z,11.45
2019-02-05T01:54:15.778Z,12.05
2019-02-05T01:56:42.579Z,12.23
2019-02-05T01:59:09.190Z,11.50
2019-02-05T02:01:35.865Z,12.45
2019-02-05T02:04:02.448Z,11.88
2019-02-05T02:06:29.034Z,12.23
2019-02-05T02:08:55.660Z,12.80
2019-02-05T02:11:22.824Z,12.45
2019-02-05T02:13:49.408Z,11.73
2019-02-05T02:16:16.149Z,12.05
2019-02-05T02:18:42.742Z,12.43
2019-02-05T02:21:09.316Z,12.58
2019-02-05T02:23:35.949Z,12.43
2019-02-05T02:26:02.596Z,12.50
2019-02-05T02:28:29.223Z,11.90
2019-02-05T02:30:56.326Z,13.58
2019-02-05T02:33:22.916Z,11.57
2019-02-05T02:35:49.491Z,10.90
2019-02-05T02:38:16.192Z,11.95
2019-02-05T02:40:42.778Z,10.70
2019-02-05T02:43:09.354Z,12.07
2019-02-05T02:45:36.069Z,11.78
2019-02-05T02:48:02.913Z,11.75
2019-02-05T02:50:29.769Z,12.55
2019-02-05T02:52:56.407Z,11.30
2019-02-05T02:55:22.983Z,13.00
2019-02-05T02:57:49.562Z,11.50
2019-02-05T03:00:16.260Z,11.63
2019-02-05T03:02:42.894Z,11.18
2019-02-05T03:05:09.556Z,12.30
2019-02-05T03:07:36.460Z,10.90
2019-02-05T03:10:03.331Z,12.03
2019-02-05T03:12:29.908Z,12.45
2019-02-05T03:14:56.527Z,11.55
2019-02-05T03:17:23.115Z,11.95
2019-02-05T03:19:49.738Z,10.93
2019-02-05T03:22:16.609Z,12.93
2019-02-05T03:24:43.275Z,12.35
2019-02-05T03:27:17.238Z,11.95
2019-02-05T03:29:38.402Z,11.68
2019-02-05T03:32:04.985Z,10.13
2019-02-05T03:34:31.737Z,11.20
2019-02-05T03:36:58.576Z,10.32
2019-02-05T03:39:25.163Z,12.23
2019-02-05T03:41:51.807Z,11.43
2019-02-05T03:44:18.466Z,11.95
2019-02-05T03:46:45.132Z,10.90
2019-02-05T03:49:11.712Z,11.50
2019-02-05T03:51:38.516Z,10.48
2019-02-05T03:54:05.102Z,11.05
2019-02-05T03:56:32.400Z,11.35
2019-02-05T03:58:59.043Z,11.50
2019-02-05T04:01:25.619Z,10.60
2019-02-05T04:03:52.202Z,10.58
2019-02-05T04:06:18.829Z,11.43
2019-02-05T04:08:45.410Z,12.73
2019-02-05T04:11:11.992Z,10.80
2019-02-05T04:13:38.802Z,11.00
2019-02-05T04:16:05.382Z,10.60
2019-02-05T04:18:32.143Z,12.47
2019-02-05T04:20:58.772Z,12.07
2019-02-05T04:23:25.357Z,10.30
2019-02-05T04:25:51.941Z,11.43
2019-02-05T04:28:18.573Z,10.23
2019-02-05T04:30:45.242Z,10.60
2019-02-05T04:33:12.297Z,10.53
2019-02-05T04:35:39.128Z,10.43
2019-02-05T04:38:05.728Z,10.75
2019-02-05T04:40:32.370Z,10.68
2019-02-05T04:42:59.037Z,10.90
2019-02-05T04:45:33.677Z,10.60
2019-02-05T04:47:54.229Z,12.37
2019-02-05T04:50:21.739Z,10.38
2019-02-05T04:52:48.908Z,10.45
2019-02-05T04:55:15.504Z,10.35
2019-02-05T04:57:42.230Z,10.53
2019-02-05T05:00:08.822Z,11.38
2019-02-05T05:02:35.408Z,10.58
2019-02-05T05:05:02.044Z,11.15
2019-02-05T05:07:28.665Z,11.05
2019-02-05T05:09:55.246Z,10.32
2019-02-05T05:12:23.615Z,9.63
2019-02-05T05:14:50.194Z,9.98
2019-02-05T05:17:16.808Z,10.70
2019-02-05T05:19:43.466Z,9.95
2019-02-05T05:22:10.052Z,10.60
2019-02-05T05:24:36.704Z,10.98
2019-02-05T05:27:03.448Z,9.75
2019-02-05T05:29:33.085Z,9.93
2019-02-05T05:31:58.325Z,10.32
2019-02-05T05:34:24.949Z,9.33
2019-02-05T05:36:51.713Z,9.40
2019-02-05T05:39:18.320Z,9.98
2019-02-05T05:41:45.117Z,9.65
2019-02-05T05:44:11.688Z,10.13
2019-02-05T05:46:38.455Z,9.23
2019-02-05T05:49:05.130Z,10.05
2019-02-05T05:51:31.709Z,9.30
2019-02-05T05:53:58.481Z,9.33
2019-02-05T05:56:25.149Z,10.13
2019-02-05T05:58:51.742Z,9.10
2019-02-05T06:01:18.319Z,9.30
2019-02-05T06:03:44.947Z,9.60
2019-02-05T06:06:11.542Z,10.10
2019-02-05T06:08:38.195Z,9.10
2019-02-05T06:11:04.833Z,10.75
2019-02-05T06:13:31.419Z,8.78
2019-02-05T06:15:57.990Z,10.05
2019-02-05T06:18:24.685Z,9.60
2019-02-05T06:20:51.256Z,9.73
2019-02-05T06:23:17.831Z,9.05
2019-02-05T06:25:44.454Z,9.60
2019-02-05T06:28:11.172Z,10.13
2019-02-05T06:30:37.805Z,10.05
2019-02-05T06:33:04.524Z,10.70
2019-02-05T06:35:31.693Z,10.20
2019-02-05T06:37:58.482Z,9.13
2019-02-05T06:40:25.384Z,10.00
2019-02-05T06:42:51.965Z,9.35
2019-02-05T06:45:18.541Z,8.25
2019-02-05T06:47:45.397Z,9.20
2019-02-05T06:50:11.963Z,9.45
2019-02-05T06:52:38.540Z,9.53
2019-02-05T06:55:05.189Z,9.78
2019-02-05T06:57:32.050Z,9.60
2019-02-05T06:59:58.627Z,8.88
2019-02-05T07:02:25.276Z,10.05
2019-02-05T07:04:51.854Z,9.80
2019-02-05T07:07:18.450Z,9.60
2019-02-05T07:09:45.324Z,9.75
2019-02-05T07:12:13.015Z,9.33
2019-02-05T07:14:39.679Z,10.78
2019-02-05T07:17:06.967Z,10.13
2019-02-05T07:19:33.659Z,9.05
2019-02-05T07:22:00.257Z,10.18
2019-02-05T07:24:27.307Z,9.20
2019-02-05T07:26:53.941Z,9.33
2019-02-05T07:29:21.896Z,8.78
2019-02-05T07:31:48.533Z,9.18
2019-02-05T07:34:15.294Z,8.98
2019-02-05T07:36:42.248Z,9.73
2019-02-05T07:39:09.356Z,10.13
2019-02-05T07:41:37.968Z,10.32
2019-02-05T07:44:04.322Z,9.68
2019-02-05T07:46:31.063Z,9.80
2019-02-05T07:48:57.642Z,10.28
2019-02-05T07:51:24.267Z,10.98
2019-02-05T07:53:51.254Z,9.18
2019-02-05T07:56:17.901Z,9.73
2019-02-05T07:58:44.916Z,9.40
2019-02-05T08:01:12.045Z,10.00
2019-02-05T08:03:38.680Z,9.13
2019-02-05T08:06:05.261Z,9.55
2019-02-05T08:08:31.968Z,10.68
2019-02-05T08:10:58.555Z,10.43
2019-02-05T08:13:25.198Z,10.50
2019-02-05T08:15:51.933Z,11.70
2019-02-05T08:18:18.900Z,9.78
2019-02-05T08:20:45.543Z,9.78
2019-02-05T08:23:12.177Z,10.53
2019-02-05T08:25:39.158Z,10.03
2019-02-05T08:28:05.807Z,9.73
2019-02-05T08:30:32.498Z,9.00
2019-02-05T08:32:59.109Z,10.25
2019-02-05T08:35:25.695Z,9.75
2019-02-05T08:37:52.433Z,9.35
2019-02-05T08:40:19.101Z,9.20
2019-02-05T08:42:45.677Z,10.05
2019-02-05T08:45:14.246Z,9.10
2019-02-05T08:47:40.729Z,9.45
2019-02-05T08:50:07.696Z,8.85
2019-02-05T08:52:34.340Z,9.08
2019-02-05T08:55:01.017Z,9.58
2019-02-05T08:57:27.706Z,8.88
2019-02-05T08:59:54.438Z,9.30
2019-02-05T09:02:21.016Z,10.68
2019-02-05T09:04:47.649Z,9.65
2019-02-05T09:07:14.349Z,10.25
2019-02-05T09:09:41.519Z,9.70
2019-02-05T09:12:08.099Z,8.68
2019-02-05T09:14:34.732Z,9.15
2019-02-05T09:17:01.376Z,8.83
2019-02-05T09:19:27.949Z,8.40
2019-02-05T09:21:55.153Z,8.90
2019-02-05T09:24:21.806Z,8.63
2019-02-05T09:26:48.460Z,8.33
2019-02-05T09:29:15.403Z,8.38
2019-02-05T09:31:42.360Z,8.83
2019-02-05T09:34:08.936Z,9.05
2019-02-05T09:36:35.557Z,8.43
2019-02-05T09:39:02.243Z,8.38
2019-02-05T09:41:28.898Z,8.65
2019-02-05T09:43:55.552Z,8.13
2019-02-05T09:46:22.169Z,9.55
2019-02-05T09:48:48.901Z,8.58
2019-02-05T09:51:15.524Z,8.73
2019-02-05T09:53:42.391Z,8.08
2019-02-05T09:56:09.043Z,8.38
2019-02-05T09:58:35.745Z,8.20
2019-02-05T10:01:02.313Z,8.75
2019-02-05T10:03:28.899Z,8.98
2019-02-05T10:05:55.693Z,7.80
2019-02-05T10:08:22.463Z,9.28
2019-02-05T10:10:49.123Z,8.40
2019-02-05T10:13:15.831Z,7.28
2019-02-05T10:15:42.688Z,8.83
2019-02-05T10:18:09.263Z,7.92
2019-02-05T10:20:36.012Z,7.83
2019-02-05T10:23:02.587Z,8.25
2019-02-05T10:25:29.487Z,8.25
2019-02-05T10:27:56.233Z,8.03
2019-02-05T10:30:22.883Z,8.70
2019-02-05T10:32:49.556Z,7.42
2019-02-05T10:35:17.447Z,7.42
2019-02-05T10:37:44.060Z,8.03
2019-02-05T10:40:10.714Z,7.40
2019-02-05T10:42:37.347Z,7.62
2019-02-05T10:45:03.932Z,7.00
2019-02-05T10:47:30.512Z,7.45
2019-02-05T10:49:58.440Z,8.35
2019-02-05T10:52:25.011Z,7.45
2019-02-05T10:54:51.594Z,7.90
2019-02-05T10:57:18.703Z,6.67
2019-02-05T10:59:45.286Z,7.10
2019-02-05T11:02:11.943Z,6.58
2019-02-05T11:04:38.588Z,7.62
2019-02-05T11:07:05.186Z,7.10
2019-02-05T11:09:31.922Z,8.05
2019-02-05T11:11:58.580Z,6.97
2019-02-05T11:14:25.236Z,7.60
2019-02-05T11:16:51.891Z,7.55
2019-02-05T11:19:19.108Z,7.05
2019-02-05T11:21:45.775Z,7.28
2019-02-05T11:24:12.450Z,7.75
2019-02-05T11:26:39.071Z,6.85
2019-02-05T11:29:05.753Z,6.92
2019-02-05T11:31:32.589Z,7.47
2019-02-05T11:33:59.332Z,6.83
2019-02-05T11:36:25.905Z,7.28
2019-02-05T11:38:52.485Z,7.17
2019-02-05T11:41:19.482Z,6.75
2019-02-05T11:43:46.138Z,7.37
2019-02-05T11:46:12.721Z,7.53
2019-02-05T11:48:39.430Z,7.40
2019-02-05T11:51:06.140Z,7.50
2019-02-05T11:53:32.875Z,6.70
2019-02-05T11:55:59.618Z,6.65
2019-02-05T11:58:26.192Z,7.30
2019-02-05T12:00:53.175Z,6.95
2019-02-05T12:03:20.085Z,7.53
2019-02-05T12:05:46.747Z,6.25
2019-02-05T12:08:13.433Z,7.58
2019-02-05T12:10:40.090Z,8.05
2019-02-05T12:13:06.716Z,7.22
2019-02-05T12:15:33.374Z,6.80
2019-02-05T12:18:00.174Z,6.40
2019-02-05T12:20:26.991Z,7.42
2019-02-05T12:22:53.636Z,7.05
2019-02-05T12:25:20.541Z,7.92
2019-02-05T12:27:47.125Z,7.28
2019-02-05T12:30:13.711Z,7.10
2019-02-05T12:32:40.338Z,6.80
2019-02-05T12:35:06.953Z,7.58
2019-02-05T12:37:33.619Z,7.78
2019-02-05T12:40:00.610Z,7.62
2019-02-05T12:42:27.246Z,6.92
2019-02-05T12:44:54.205Z,7.28
2019-02-05T12:47:20.834Z,7.40
2019-02-05T12:49:47.476Z,7.37
2019-02-05T12:52:14.111Z,7.90
2019-02-05T12:54:41.857Z,8.38
2019-02-05T12:57:08.450Z,7.87
2019-02-05T12:59:35.062Z,6.67
2019-02-05T13:02:01.706Z,7.05
2019-02-05T13:04:28.298Z,7.17
2019-02-05T13:06:54.874Z,6.67
2019-02-05T13:09:21.518Z,8.40
2019-02-05T13:11:48.097Z,6.35
2019-02-05T13:14:14.687Z,7.58
2019-02-05T13:16:41.300Z,7.35
2019-02-05T13:19:07.877Z,6.95
2019-02-05T13:21:34.459Z,6.70
2019-02-05T13:24:01.877Z,7.20
2019-02-05T13:26:28.480Z,6.87
2019-02-05T13:28:55.069Z,6.40
2019-02-05T13:31:21.803Z,7.03
2019-02-05T13:33:48.383Z,7.00
2019-02-05T13:36:14.971Z,7.45
2019-02-05T13:38:41.815Z,7.15
2019-02-05T13:41:08.591Z,7.15
2019-02-05T13:43:35.453Z,7.45
2019-02-05T13:46:02.227Z,6.45
2019-02-05T13:48:28.879Z,6.45
2019-02-05T13:50:55.577Z,6.25
2019-02-05T13:53:22.201Z,6.80
2019-02-05T13:55:48.774Z,7.55
2019-02-05T13:58:15.351Z,7.35
2019-02-05T14:00:41.996Z,7.35
2019-02-05T14:03:08.949Z,7.35
2019-02-05T14:05:35.533Z,7.28
2019-02-05T14:08:02.242Z,7.12
2019-02-05T14:10:28.824Z,7.53
2019-02-05T14:12:55.502Z,6.75
2019-02-05T14:15:22.111Z,6.17
2019-02-05T14:17:49.760Z,7.33
2019-02-05T14:20:16.344Z,6.90
2019-02-05T14:22:43.410Z,7.30
2019-02-05T14:25:10.074Z,8.15
2019-02-05T14:27:36.647Z,7.15
2019-02-05T14:30:03.326Z,6.58
2019-02-05T14:32:30.794Z,8.38
2019-02-05T14:34:57.567Z,6.40
2019-02-05T14:37:24.255Z,6.85
2019-02-05T14:39:50.830Z,7.85
2019-02-05T14:42:17.751Z,7.37
2019-02-05T14:44:44.383Z,7.08
2019-02-05T14:47:10.959Z,7.25
2019-02-05T14:49:38.334Z,7.35
2019-02-05T14:52:05.059Z,6.25
2019-02-05T14:54:31.688Z,6.83
2019-02-05T14:56:58.254Z,6.70
2019-02-05T14:59:26.286Z,7.22
2019-02-05T15:01:52.871Z,6.53
2019-02-05T15:04:19.442Z,6.70
2019-02-05T15:06:46.065Z,6.75
2019-02-05T15:09:12.644Z,6.72
2019-02-05T15:11:39.251Z,7.12
2019-02-05T15:14:05.898Z,7.17
2019-02-05T15:16:32.482Z,7.03
2019-02-05T15:18:59.239Z,7.50
2019-02-05T15:21:25.856Z,6.97
2019-02-05T15:23:52.456Z,8.03
2019-02-05T15:26:19.023Z,7.35
2019-02-05T15:28:45.717Z,7.35
2019-02-05T15:31:12.450Z,8.15
2019-02-05T15:33:39.036Z,7.83
2019-02-05T15:36:05.718Z,8.98
2019-02-05T15:38:32.351Z,8.55
2019-02-05T15:40:58.941Z,7.20
2019-02-05T15:43:25.564Z,8.80
2019-02-05T15:45:52.148Z,8.75
2019-02-05T15:48:18.720Z,9.35
2019-02-05T15:50:45.366Z,10.08
2019-02-05T15:53:12.202Z,8.95
2019-02-05T15:55:39.154Z,10.63
2019-02-05T15:58:05.793Z,9.15
2019-02-05T16:00:34.633Z,8.75
2019-02-05T16:03:00.693Z,7.45
2019-02-05T16:05:27.321Z,8.43
2019-02-05T16:07:53.901Z,9.15
2019-02-05T16:10:20.482Z,7.50
2019-02-05T16:12:47.276Z,7.92
2019-02-05T16:15:14.142Z,9.08
2019-02-05T16:17:40.734Z,8.63
2019-02-05T16:20:07.409Z,9.10
2019-02-05T16:22:34.001Z,9.93
2019-02-05T16:25:00.584Z,12.53
2019-02-05T16:27:27.366Z,12.85
2019-02-05T16:29:53.968Z,16.62
2019-02-05T16:32:20.540Z,18.20
2019-02-05T16:34:47.641Z,20.68
2019-02-05T16:37:14.220Z,23.22
2019-02-05T16:39:40.799Z,22.42
2019-02-05T16:42:07.447Z,25.35
2019-02-05T16:44:34.026Z,26.12
2019-02-05T16:47:00.638Z,27.20
2019-02-05T16:49:27.298Z,28.83
2019-02-05T16:51:53.975Z,29.32
2019-02-05T16:54:20.938Z,31.50
2019-02-05T16:56:47.608Z,30.17
2019-02-05T16:59:14.259Z,32.58
2019-02-05T17:01:40.832Z,30.32
2019-02-05T17:04:07.457Z,31.97
2019-02-05T17:06:34.039Z,31.45
2019-02-05T17:09:00.614Z,31.30
2019-02-05T17:11:27.243Z,32.20
2019-02-05T17:13:54.401Z,32.33
2019-02-05T17:16:21.004Z,31.42
2019-02-05T17:18:47.716Z,30.52
2019-02-05T17:21:14.288Z,32.00
2019-02-05T17:23:41.097Z,31.57
2019-02-05T17:26:07.732Z,32.45
2019-02-05T17:28:34.303Z,30.12
2019-02-05T17:31:01.006Z,31.95
2019-02-05T17:33:28.085Z,32.35
2019-02-05T17:35:55.005Z,30.35
2019-02-05T17:38:21.594Z,30.72
2019-02-05T17:40:48.274Z,30.92
2019-02-05T17:43:14.918Z,32.13
2019-02-05T17:45:41.488Z,31.12
2019-02-05T17:48:08.129Z,32.53
2019-02-05T17:50:34.828Z,31.85
2019-02-05T17:53:01.780Z,32.42
2019-02-05T17:55:28.421Z,30.68
2019-02-05T17:57:55.008Z,31.75
2019-02-05T18:00:21.582Z,31.65
2019-02-05T18:02:51.523Z,32.13
2019-02-05T18:05:16.570Z,31.95
2019-02-05T18:07:44.264Z,32.60
2019-02-05T18:10:11.310Z,31.80
2019-02-05T18:12:38.026Z,29.80
2019-02-05T18:15:04.610Z,31.05
2019-02-05T18:17:31.231Z,31.10
2019-02-05T18:19:58.813Z,29.95
2019-02-05T18:22:25.391Z,31.35
2019-02-05T18:24:52.312Z,30.77
2019-02-05T18:27:18.895Z,28.98
2019-02-05T18:29:45.968Z,30.57
2019-02-05T18:32:13.263Z,30.43
2019-02-05T18:34:39.853Z,32.55
2019-02-05T18:37:06.428Z,32.25
2019-02-05T18:39:33.071Z,30.37
2019-02-05T18:41:59.664Z,29.85
2019-02-05T18:44:26.251Z,29.60
2019-02-05T18:46:52.910Z,32.50
2019-02-05T18:49:19.495Z,31.62
2019-02-05T18:51:48.236Z,30.88
2019-02-05T18:54:14.892Z,32.05
2019-02-05T18:56:41.467Z,31.35
2019-02-05T18:59:08.054Z,31.52
2019-02-05T19:01:34.673Z,32.48
2019-02-05T19:04:01.370Z,30.32
2019-02-05T19:06:27.945Z,31.48
2019-02-05T19:08:54.768Z,29.75
2019-02-05T19:11:21.352Z,33.00
2019-02-05T19:13:47.946Z,31.48
2019-02-05T19:16:14.606Z,32.25
2019-02-05T19:18:41.183Z,32.10
2019-02-05T19:21:07.781Z,32.03
2019-02-05T19:23:34.608Z,30.80
2019-02-05T19:26:01.194Z,32.55
2019-02-05T19:28:27.883Z,31.82
2019-02-05T19:30:54.517Z,33.73
2019-02-05T19:33:27.202Z,30.75
2019-02-05T19:35:49.735Z,32.30
